createdAt,value
2023-03-31T00:00:36.433Z,99859.25
2023-03-31T00:03:39.234Z,99854.97
2023-03-31T00:06:42.494Z,99848.81
2023-03-31T00:09:48.486Z,99847.53
2023-03-31T00:12:50.857Z,99850.00
2023-03-31T00:16:00.961Z,99843.81
2023-03-31T00:19:03.567Z,99844.53
2023-03-31T00:22:06.284Z,99833.13
2023-03-31T00:25:11.749Z,99839.25
2023-03-31T00:28:14.084Z,99835.34
2023-03-31T00:31:16.983Z,99843.66
2023-03-31T00:34:19.578Z,99831.28
2023-03-31T00:37:23.383Z,99833.47
2023-03-31T00:40:25.826Z,99827.53
2023-03-31T00:43:32.810Z,99825.53
2023-03-31T00:46:38.606Z,99824.34
2023-03-31T00:49:42.722Z,99815.50
2023-03-31T00:52:47.013Z,99816.31
2023-03-31T00:55:52.711Z,99832.47
2023-03-31T00:58:58.329Z,99819.44
2023-03-31T01:02:03.092Z,99826.56
2023-03-31T01:05:06.996Z,99821.44
2023-03-31T01:08:10.394Z,99811.72
2023-03-31T01:11:17.075Z,99812.22
2023-03-31T01:14:21.410Z,99813.88
2023-03-31T01:17:25.699Z,99810.56
2023-03-31T01:20:51.956Z,99798.56
2023-03-31T01:24:14.063Z,99803.09
2023-03-31T01:27:32.454Z,99805.59
2023-03-31T01:30:55.625Z,99803.81
2023-03-31T01:34:18.845Z,99806.28
2023-03-31T01:37:40.340Z,99807.12
2023-03-31T01:40:50.111Z,99803.81
2023-03-31T01:44:05.331Z,99806.53
2023-03-31T01:47:12.012Z,99802.28
2023-03-31T01:50:16.924Z,99807.25
2023-03-31T01:53:20.656Z,99798.94
2023-03-31T01:56:30.653Z,99799.09
2023-03-31T01:59:33.753Z,99801.19
2023-03-31T02:02:39.805Z,99803.81
2023-03-31T02:05:45.877Z,99805.00
2023-03-31T02:08:51.790Z,99803.56
2023-03-31T02:11:57.081Z,99802.03
2023-03-31T02:15:02.018Z,99790.41
2023-03-31T02:18:13.875Z,99797.06
2023-03-31T02:21:17.731Z,99800.84
2023-03-31T02:24:23.334Z,99795.03
2023-03-31T02:27:28.329Z,99790.44
2023-03-31T02:30:47.896Z,99788.16
2023-03-31T02:33:51.672Z,99794.81
2023-03-31T02:36:54.698Z,99796.00
2023-03-31T02:39:59.098Z,99793.75
2023-03-31T02:43:02.684Z,99789.22
2023-03-31T02:46:06.673Z,99791.72
2023-03-31T02:49:12.351Z,99784.38
2023-03-31T02:52:16.529Z,99784.09
2023-03-31T02:55:38.720Z,99782.34
2023-03-31T02:58:49.999Z,99793.44
2023-03-31T03:01:56.635Z,99785.97
2023-03-31T03:04:59.991Z,99766.75
2023-03-31T03:08:03.786Z,99776.69
2023-03-31T03:11:25.926Z,99781.88
2023-03-31T03:14:40.854Z,99777.72
2023-03-31T03:17:48.050Z,99775.62
2023-03-31T03:20:51.639Z,99777.91
2023-03-31T03:23:56.019Z,99777.28
2023-03-31T03:26:58.953Z,99773.03
2023-03-31T03:30:05.565Z,99773.56
2023-03-31T03:33:08.352Z,99769.28
2023-03-31T03:36:12.062Z,99771.44
2023-03-31T03:39:15.117Z,99772.37
2023-03-31T03:42:18.302Z,99775.47
2023-03-31T03:45:21.512Z,99777.00
2023-03-31T03:48:26.129Z,99778.91
2023-03-31T03:51:28.839Z,99774.53
2023-03-31T03:54:31.764Z,99772.75
2023-03-31T03:57:35.471Z,99775.13
2023-03-31T04:00:39.417Z,99777.00
2023-03-31T04:03:42.179Z,99781.16
2023-03-31T04:06:46.937Z,99779.28
2023-03-31T04:09:50.444Z,99778.78
2023-03-31T04:12:54.565Z,99774.66
2023-03-31T04:15:58.818Z,99772.75
2023-03-31T04:19:05.776Z,99771.34
2023-03-31T04:22:13.251Z,99763.88
2023-03-31T04:25:17.446Z,99774.16
2023-03-31T04:28:21.093Z,99778.84
2023-03-31T04:31:26.162Z,99779.66
2023-03-31T04:34:35.754Z,99785.34
2023-03-31T04:37:39.167Z,99776.75
2023-03-31T04:40:42.158Z,99772.94
2023-03-31T04:43:45.154Z,99771.94
2023-03-31T04:46:48.352Z,99768.12
2023-03-31T04:49:51.435Z,99770.56
2023-03-31T04:52:55.109Z,99775.16
2023-03-31T04:56:01.217Z,99775.72
2023-03-31T04:59:04.513Z,99770.41
2023-03-31T05:02:07.715Z,99764.16
2023-03-31T05:05:11.379Z,99765.66
2023-03-31T05:08:14.272Z,99761.50
2023-03-31T05:11:17.506Z,99754.75
2023-03-31T05:14:21.323Z,99750.37
2023-03-31T05:17:24.029Z,99743.16
2023-03-31T05:20:26.766Z,99742.28
2023-03-31T05:23:30.790Z,99743.25
2023-03-31T05:26:34.078Z,99748.25
2023-03-31T05:29:37.391Z,99741.69
2023-03-31T05:32:40.525Z,99751.13
2023-03-31T05:35:44.694Z,99743.47
2023-03-31T05:38:48.599Z,99751.31
2023-03-31T05:41:51.402Z,99747.00
2023-03-31T05:44:54.787Z,99752.84
2023-03-31T05:47:58.011Z,99747.72
2023-03-31T05:51:02.137Z,99749.94
2023-03-31T05:54:05.002Z,99748.16
2023-03-31T05:57:09.253Z,99761.59
2023-03-31T06:00:13.727Z,99755.38
2023-03-31T06:03:17.578Z,99746.22
2023-03-31T06:06:21.978Z,99748.22
2023-03-31T06:09:26.516Z,99742.28
2023-03-31T06:12:29.392Z,99748.56
2023-03-31T06:15:32.476Z,99747.56
2023-03-31T06:18:36.514Z,99756.87
2023-03-31T06:21:39.594Z,99756.69
2023-03-31T06:24:43.001Z,99763.91
2023-03-31T06:27:45.874Z,99765.00
2023-03-31T06:30:48.795Z,99755.88
2023-03-31T06:33:51.838Z,99761.22
2023-03-31T06:36:54.946Z,99753.44
2023-03-31T06:39:57.939Z,99761.94
2023-03-31T06:43:01.355Z,99754.12
2023-03-31T06:46:04.924Z,99756.28
2023-03-31T06:49:07.637Z,99757.75
2023-03-31T06:52:11.196Z,99754.69
2023-03-31T06:55:17.129Z,99760.06
2023-03-31T06:58:20.324Z,99763.25
2023-03-31T07:01:23.066Z,99773.94
2023-03-31T07:04:26.060Z,99766.53
2023-03-31T07:07:31.404Z,99778.44
2023-03-31T07:10:34.438Z,99783.78
2023-03-31T07:13:36.801Z,99793.09
2023-03-31T07:16:39.817Z,99780.37
2023-03-31T07:19:42.994Z,99768.06
2023-03-31T07:22:46.281Z,99757.75
2023-03-31T07:25:49.309Z,99751.00
2023-03-31T07:28:52.398Z,99742.41
2023-03-31T07:31:55.033Z,99738.12
2023-03-31T07:34:58.238Z,99729.50
2023-03-31T07:38:01.559Z,99737.22
2023-03-31T07:41:09.047Z,99732.09
2023-03-31T07:44:12.168Z,99730.91
2023-03-31T07:47:15.448Z,99718.19
2023-03-31T07:50:20.805Z,99707.66
2023-03-31T07:53:23.544Z,99702.19
2023-03-31T07:56:26.743Z,99688.94
2023-03-31T07:59:30.861Z,99693.25
2023-03-31T08:02:35.530Z,99696.69
2023-03-31T08:05:38.683Z,99693.31
2023-03-31T08:08:43.785Z,99695.75
2023-03-31T08:11:48.100Z,99688.81
2023-03-31T08:14:51.684Z,99687.50
2023-03-31T08:17:54.588Z,99672.03
2023-03-31T08:20:57.443Z,99667.59
2023-03-31T08:24:00.312Z,99667.56
2023-03-31T08:27:03.334Z,99662.06
2023-03-31T08:30:07.631Z,99663.41
2023-03-31T08:33:12.690Z,99660.25
2023-03-31T08:36:15.961Z,99644.53
2023-03-31T08:39:19.310Z,99648.09
2023-03-31T08:42:24.034Z,99638.75
2023-03-31T08:45:30.960Z,99629.19
2023-03-31T08:48:39.294Z,99636.00
2023-03-31T08:51:42.838Z,99621.75
2023-03-31T08:54:49.886Z,99625.38
2023-03-31T08:57:58.347Z,99613.66
2023-03-31T09:01:07.097Z,99605.50
2023-03-31T09:04:22.501Z,99599.81
2023-03-31T09:07:32.815Z,99590.56
2023-03-31T09:10:42.548Z,99594.06
2023-03-31T09:13:46.129Z,99591.22
2023-03-31T09:16:51.863Z,99587.81
2023-03-31T09:20:02.053Z,99584.13
2023-03-31T09:23:18.491Z,99582.97
2023-03-31T09:26:43.093Z,99582.91
2023-03-31T09:29:58.985Z,99572.25
2023-03-31T09:33:36.861Z,99564.72
2023-03-31T09:36:39.746Z,99565.16
2023-03-31T09:39:42.772Z,99552.69
2023-03-31T09:42:47.068Z,99562.16
2023-03-31T09:46:07.756Z,99552.47
2023-03-31T09:49:14.752Z,99549.88
2023-03-31T09:52:26.554Z,99542.44
2023-03-31T09:55:44.061Z,99545.72
2023-03-31T09:58:47.190Z,99545.03
2023-03-31T10:01:54.374Z,99542.06
2023-03-31T10:04:58.083Z,99528.50
2023-03-31T10:08:20.258Z,99527.53
2023-03-31T10:11:23.855Z,99515.22
2023-03-31T10:14:49.572Z,99512.75
2023-03-31T10:17:55.526Z,99503.44
2023-03-31T10:20:59.751Z,99497.87
2023-03-31T10:24:03.319Z,99491.94
2023-03-31T10:27:07.895Z,99484.34
2023-03-31T10:30:12.575Z,99484.88
2023-03-31T10:36:26.648Z,99481.00
2023-03-31T10:39:31.494Z,99473.22
2023-03-31T10:42:34.704Z,99471.88
2023-03-31T10:45:39.345Z,99464.22
2023-03-31T10:48:43.318Z,99470.78
2023-03-31T10:51:56.561Z,99458.56
2023-03-31T10:54:59.565Z,99460.00
2023-03-31T10:58:07.562Z,99452.84
2023-03-31T11:01:30.123Z,99455.47
2023-03-31T11:04:51.314Z,99446.06
2023-03-31T11:07:54.029Z,99444.50
2023-03-31T11:11:34.898Z,99443.16
2023-03-31T11:14:56.405Z,99433.53
2023-03-31T11:18:01.761Z,99431.84
2023-03-31T11:21:13.304Z,99439.53
2023-03-31T11:24:38.973Z,99432.34
2023-03-31T11:27:51.431Z,99419.88
2023-03-31T11:31:11.690Z,99419.00
2023-03-31T11:34:13.964Z,99390.81
2023-03-31T11:37:25.810Z,99385.44
2023-03-31T11:40:28.277Z,99372.28
2023-03-31T11:43:33.703Z,99359.09
2023-03-31T11:46:36.581Z,99351.91
2023-03-31T11:49:42.171Z,99342.91
2023-03-31T11:52:49.258Z,99342.81
2023-03-31T11:55:54.863Z,99342.16
2023-03-31T11:58:59.480Z,99337.94
2023-03-31T12:02:11.439Z,99332.03
2023-03-31T12:05:14.938Z,99324.72
2023-03-31T12:08:32.281Z,99321.38
2023-03-31T12:11:40.725Z,99308.91
2023-03-31T12:14:47.790Z,99307.53
2023-03-31T12:17:56.436Z,99295.53
2023-03-31T12:21:01.512Z,99302.19
2023-03-31T12:24:05.399Z,99299.66
2023-03-31T12:27:14.447Z,99300.00
2023-03-31T12:30:20.926Z,99282.22
2023-03-31T12:33:28.916Z,99298.16
2023-03-31T12:36:55.509Z,99281.84
2023-03-31T12:40:17.239Z,99282.72
2023-03-31T12:43:38.459Z,99271.69
2023-03-31T12:46:47.124Z,99267.34
2023-03-31T12:49:52.494Z,99263.91
2023-03-31T12:52:58.742Z,99255.56
2023-03-31T12:56:01.120Z,99259.78
2023-03-31T12:59:23.010Z,99250.56
2023-03-31T13:02:26.508Z,99247.69
2023-03-31T13:05:47.801Z,99225.91
2023-03-31T13:08:51.396Z,99240.00
2023-03-31T13:11:54.439Z,99232.19
2023-03-31T13:15:00.583Z,99231.56
2023-03-31T13:18:05.664Z,99217.00
2023-03-31T13:21:09.571Z,99202.44
2023-03-31T13:24:13.184Z,99199.31
2023-03-31T13:27:30.393Z,99197.72
2023-03-31T13:30:42.138Z,99178.34
2023-03-31T13:33:57.577Z,99171.84
2023-03-31T13:37:10.839Z,99171.66
2023-03-31T13:40:16.815Z,99162.28
2023-03-31T13:43:19.263Z,99153.50
2023-03-31T13:46:40.190Z,99147.19
2023-03-31T13:49:54.160Z,99133.66
2023-03-31T13:53:09.505Z,99122.84
2023-03-31T13:56:30.822Z,99117.53
2023-03-31T13:59:48.934Z,99125.16
2023-03-31T14:02:54.467Z,99132.63
2023-03-31T14:06:14.557Z,99122.06
2023-03-31T14:09:29.952Z,99118.28
2023-03-31T14:12:36.846Z,99112.19
2023-03-31T14:15:41.498Z,99101.75
2023-03-31T14:18:49.629Z,99097.84
2023-03-31T14:21:56.430Z,99088.88
2023-03-31T14:25:34.546Z,99066.69
2023-03-31T14:28:47.874Z,99057.94
2023-03-31T14:32:05.556Z,99047.91
2023-03-31T14:35:20.270Z,99027.59
2023-03-31T14:38:23.378Z,99028.62
2023-03-31T14:41:30.082Z,99040.69
2023-03-31T14:44:33.940Z,99030.63
2023-03-31T14:47:36.708Z,99022.56
2023-03-31T14:50:42.410Z,99019.66
2023-03-31T14:53:45.124Z,99010.87
2023-03-31T14:56:53.457Z,99020.63
2023-03-31T14:59:56.217Z,99016.69
2023-03-31T15:03:00.486Z,99006.06
2023-03-31T15:06:03.770Z,99019.41
2023-03-31T15:09:06.536Z,99015.53
2023-03-31T15:12:12.810Z,99008.22
2023-03-31T15:15:16.338Z,99009.16
2023-03-31T15:18:18.803Z,99007.78
2023-03-31T15:21:22.486Z,99002.78
2023-03-31T15:24:25.003Z,99012.00
2023-03-31T15:27:36.956Z,99004.44
2023-03-31T15:30:40.819Z,99006.16
2023-03-31T15:33:43.320Z,99008.78
2023-03-31T15:36:46.334Z,98998.94
2023-03-31T15:39:49.616Z,98979.09
2023-03-31T15:43:06.692Z,98965.94
2023-03-31T15:46:21.100Z,98970.09
2023-03-31T15:49:24.867Z,98966.59
2023-03-31T15:52:36.533Z,98968.22
2023-03-31T15:58:55.922Z,98955.00
2023-03-31T16:02:00.279Z,98945.31
2023-03-31T16:05:08.087Z,98951.03
2023-03-31T16:08:24.692Z,98949.34
2023-03-31T16:11:33.503Z,98966.31
2023-03-31T16:14:38.665Z,98953.75
2023-03-31T16:17:46.399Z,98954.59
2023-03-31T16:20:56.606Z,98940.53
2023-03-31T16:24:00.105Z,98932.63
2023-03-31T16:27:07.110Z,98936.25
2023-03-31T16:30:13.048Z,98930.31
2023-03-31T16:33:19.547Z,98943.50
2023-03-31T16:36:21.887Z,98939.84
2023-03-31T16:39:24.403Z,98953.38
2023-03-31T16:42:27.493Z,98958.56
2023-03-31T16:45:30.491Z,98964.37
2023-03-31T16:48:36.397Z,98964.06
2023-03-31T16:51:39.209Z,98964.13
2023-03-31T16:54:42.020Z,98970.19
2023-03-31T16:57:44.300Z,98969.19
2023-03-31T17:00:47.414Z,98966.91
2023-03-31T17:03:50.293Z,98965.34
2023-03-31T17:06:53.454Z,98953.84
2023-03-31T17:09:56.000Z,98957.16
2023-03-31T17:12:58.532Z,98949.50
2023-03-31T17:19:27.568Z,98956.94
2023-03-31T17:22:30.496Z,98947.28
2023-03-31T17:25:35.378Z,98949.75
2023-03-31T17:28:38.330Z,98939.28
2023-03-31T17:31:41.167Z,98944.41
2023-03-31T17:34:43.942Z,98941.28
2023-03-31T17:37:46.605Z,98942.13
2023-03-31T17:40:49.301Z,98943.16
2023-03-31T17:43:51.740Z,98937.56
2023-03-31T17:46:54.135Z,98933.31
2023-03-31T17:49:56.537Z,98922.84
2023-03-31T17:52:59.120Z,98919.09
2023-03-31T17:56:02.371Z,98927.47
2023-03-31T17:59:05.694Z,98940.44
2023-03-31T18:02:08.847Z,98949.31
2023-03-31T18:05:11.689Z,98961.28
2023-03-31T18:08:14.466Z,98957.19
2023-03-31T18:11:17.555Z,98960.97
2023-03-31T18:14:20.842Z,98954.09
2023-03-31T18:17:24.200Z,98955.41
2023-03-31T18:20:26.752Z,98946.56
2023-03-31T18:23:29.862Z,98953.28
2023-03-31T18:26:32.420Z,98943.78
2023-03-31T18:29:36.859Z,98942.94
2023-03-31T18:32:40.527Z,98947.69
2023-03-31T18:35:43.182Z,98934.06
2023-03-31T18:38:46.506Z,98948.31
2023-03-31T18:41:50.248Z,98956.16
2023-03-31T18:44:53.650Z,98955.84
2023-03-31T18:47:56.860Z,98955.22
2023-03-31T18:50:59.835Z,98958.31
2023-03-31T18:54:02.378Z,98962.09
2023-03-31T18:57:05.035Z,98952.75
2023-03-31T19:00:08.587Z,98960.00
2023-03-31T19:03:12.070Z,98957.69
2023-03-31T19:06:16.922Z,98955.38
2023-03-31T19:09:20.714Z,98969.47
2023-03-31T19:12:24.170Z,98971.63
2023-03-31T19:15:28.440Z,98974.38
2023-03-31T19:18:31.468Z,98974.88
2023-03-31T19:21:36.818Z,98969.94
2023-03-31T19:24:40.629Z,98968.31
2023-03-31T19:27:44.044Z,98970.72
2023-03-31T19:30:48.020Z,98968.09
2023-03-31T19:33:50.706Z,98963.00
2023-03-31T19:36:54.402Z,98957.72
2023-03-31T19:39:57.197Z,98955.84
2023-03-31T19:42:59.759Z,98964.94
2023-03-31T19:46:02.835Z,98967.59
2023-03-31T19:49:05.898Z,98955.22
2023-03-31T19:52:08.745Z,98959.25
2023-03-31T19:55:12.143Z,98952.56
2023-03-31T19:58:15.125Z,98944.66
2023-03-31T20:01:25.293Z,98949.37
2023-03-31T20:04:27.924Z,98946.22
2023-03-31T20:07:30.470Z,98946.97
2023-03-31T20:10:33.017Z,98947.63
2023-03-31T20:13:38.809Z,98946.31
2023-03-31T20:16:41.906Z,98938.69
2023-03-31T20:19:45.291Z,98940.19
2023-03-31T20:22:47.633Z,98935.28
2023-03-31T20:25:51.889Z,98936.84
2023-03-31T20:28:56.110Z,98936.84
2023-03-31T20:31:58.482Z,98930.12
2023-03-31T20:35:00.698Z,98928.78
2023-03-31T20:38:02.814Z,98925.03
2023-03-31T20:41:05.725Z,98928.63
2023-03-31T20:44:12.018Z,98915.19
2023-03-31T20:47:15.907Z,98912.84
2023-03-31T20:50:17.999Z,98904.69
2023-03-31T20:53:20.056Z,98909.41
2023-03-31T20:56:23.638Z,98909.56
2023-03-31T20:59:25.707Z,98898.84
2023-03-31T21:02:27.626Z,98903.53
2023-03-31T21:05:29.959Z,98906.56
2023-03-31T21:08:32.426Z,98901.06
2023-03-31T21:11:34.609Z,98901.06
2023-03-31T21:14:36.788Z,98892.19
2023-03-31T21:17:38.904Z,98888.59
2023-03-31T21:20:40.903Z,98877.66
2023-03-31T21:23:42.779Z,98883.84
2023-03-31T21:26:44.651Z,98880.25
2023-03-31T21:29:46.482Z,98876.44
2023-03-31T21:32:48.532Z,98876.97
2023-03-31T21:35:51.269Z,98872.84
2023-03-31T21:38:53.962Z,98871.22
2023-03-31T21:41:55.895Z,98870.25
2023-03-31T21:44:59.078Z,98875.97
2023-03-31T21:48:01.364Z,98877.50
2023-03-31T21:51:03.763Z,98879.44
2023-03-31T21:54:06.840Z,98881.88
2023-03-31T21:57:08.935Z,98887.91
2023-03-31T22:00:15.784Z,98878.59
2023-03-31T22:03:27.039Z,98868.69
2023-03-31T22:06:30.018Z,98884.88
2023-03-31T22:09:31.954Z,98882.53
2023-03-31T22:12:34.217Z,98889.81
2023-03-31T22:15:36.677Z,98895.97
2023-03-31T22:18:38.655Z,98895.97
2023-03-31T22:21:40.974Z,98885.28
2023-03-31T22:24:42.913Z,98884.47
2023-03-31T22:27:44.881Z,98875.16
2023-03-31T22:30:47.304Z,98883.91
2023-03-31T22:33:49.615Z,98863.47
2023-03-31T22:36:51.885Z,98865.25
2023-03-31T22:39:53.883Z,98854.84
2023-03-31T22:42:57.480Z,98866.37
2023-03-31T22:46:06.636Z,98863.47
2023-03-31T22:49:09.794Z,98863.47
2023-03-31T22:52:13.565Z,98853.56
2023-03-31T22:55:15.930Z,98859.03
2023-03-31T22:58:18.147Z,98861.34
2023-03-31T23:01:20.964Z,98855.84
2023-03-31T23:04:23.514Z,98862.84
2023-03-31T23:07:25.997Z,98850.31
2023-03-31T23:10:28.407Z,98850.19
2023-03-31T23:13:30.966Z,98844.00
2023-03-31T23:16:33.029Z,98855.84
2023-03-31T23:19:35.135Z,98857.34
2023-03-31T23:22:37.672Z,98848.09
2023-03-31T23:25:39.696Z,98840.81
2023-03-31T23:28:41.818Z,98846.50
2023-03-31T23:31:44.056Z,98844.59
2023-03-31T23:34:46.267Z,98848.88
2023-03-31T23:37:48.571Z,98855.19
2023-03-31T23:40:50.917Z,98855.59
2023-03-31T23:43:53.896Z,98861.91
2023-03-31T23:46:56.177Z,98865.31
2023-03-31T23:49:58.748Z,98876.44
2023-03-31T23:53:01.577Z,98877.53
2023-03-31T23:56:13.448Z,98879.56
2023-03-31T23:59:16.045Z,98870.00
